Time;durP1;ratioP1;P1;durP2;ratioP2;P2;SDS_P1;SDS_P2;PMS_P1;PMS_P2;Temp;Humidity;BMP_temperature;BMP_pressure;BME280_temperature;BME280_humidity;BME280_pressure;Samples;Min_cycle;Max_cycle;Signal;HPM_P1;HPM_P2
2023/06/18 00:00:32;;;;;;;1.42;1.10;;;16.70;99.90;;;;;;4129948;28;20515;-64
2023/06/18 00:02:33;;;;;;;0.80;0.80;;;16.70;99.90;;;;;;4130169;28;20042;-63
2023/06/18 00:04:35;;;;;;;1.73;1.10;;;16.70;99.90;;;;;;4129861;28;20097;-64
2023/06/18 00:06:36;;;;;;;1.27;1.08;;;16.70;99.90;;;;;;4130768;28;20042;-64
2023/06/18 00:08:38;;;;;;;4.40;1.67;;;16.70;99.90;;;;;;4130192;28;20546;-64
2023/06/18 00:10:39;;;;;;;2.67;1.33;;;16.70;99.90;;;;;;4131180;28;20050;-64
2023/06/18 00:12:40;;;;;;;1.33;1.20;;;16.70;99.90;;;;;;4130043;28;20038;-65
2023/06/18 00:14:41;;;;;;;7.47;3.40;;;16.70;99.90;;;;;;4130522;28;20533;-65
2023/06/18 00:16:42;;;;;;;1.30;1.20;;;16.70;99.90;;;;;;4129879;28;20537;-66
2023/06/18 00:18:43;;;;;;;3.97;1.60;;;16.70;99.90;;;;;;4130116;28;20054;-64
2023/06/18 00:20:46;;;;;;;4.20;1.55;;;16.70;99.90;;;;;;4130351;28;20089;-67
2023/06/18 00:22:48;;;;;;;6.63;2.97;;;16.70;99.90;;;;;;4130248;28;20030;-67
2023/06/18 00:24:49;;;;;;;1.70;1.60;;;16.70;99.90;;;;;;4130880;28;20042;-65
2023/06/18 00:26:50;;;;;;;3.83;1.58;;;16.70;99.90;;;;;;4129953;28;20429;-64
2023/06/18 00:28:51;;;;;;;1.70;1.60;;;16.70;99.90;;;;;;4131057;28;20081;-64
2023/06/18 00:30:52;;;;;;;1.60;1.50;;;16.60;99.90;;;;;;4129364;28;20470;-64
2023/06/18 00:32:54;;;;;;;1.60;1.50;;;16.60;99.90;;;;;;4130455;28;20034;-64
2023/06/18 00:34:55;;;;;;;4.15;1.55;;;16.60;99.90;;;;;;4128721;28;20099;-67
2023/06/18 00:36:57;;;;;;;1.92;1.50;;;16.60;99.90;;;;;;4130314;28;20549;-67
2023/06/18 00:38:58;;;;;;;3.35;1.75;;;16.70;99.90;;;;;;4129609;28;20471;-64
2023/06/18 00:40:59;;;;;;;1.65;1.50;;;16.60;99.90;;;;;;4129780;28;20100;-64
2023/06/18 00:43:03;;;;;;;2.80;1.73;;;16.60;99.90;;;;;;4129105;28;20097;-64
2023/06/18 00:45:08;;;;;;;4.40;2.00;;;16.60;99.90;;;;;;4129965;28;20450;-64
2023/06/18 00:47:13;;;;;;;2.42;1.70;;;16.60;99.90;;;;;;4129155;28;20042;-64
2023/06/18 00:49:15;;;;;;;1.48;1.20;;;16.60;99.90;;;;;;4130325;28;20438;-64
2023/06/18 00:51:16;;;;;;;1.40;1.30;;;16.50;99.90;;;;;;4129665;28;20459;-63
2023/06/18 00:53:18;;;;;;;2.08;1.42;;;16.50;99.90;;;;;;4129995;28;20066;-64
2023/06/18 00:55:20;;;;;;;2.90;1.55;;;16.50;99.90;;;;;;4129828;28;20057;-63
2023/06/18 00:57:23;;;;;;;2.38;1.85;;;16.50;99.90;;;;;;4113751;28;20030;-63
2023/06/18 00:59:24;;;;;;;2.47;1.38;;;16.40;99.90;;;;;;4114161;28;20105;-63
2023/06/18 01:01:25;;;;;;;3.50;1.52;;;16.40;99.90;;;;;;4119756;28;20100;-63
2023/06/18 01:03:27;;;;;;;1.80;1.60;;;16.40;99.90;;;;;;4130074;28;20030;-65
2023/06/18 01:05:31;;;;;;;2.72;1.83;;;16.40;99.90;;;;;;4128899;28;20094;-63
2023/06/18 01:07:37;;;;;;;3.53;1.85;;;16.40;99.90;;;;;;4130238;28;20072;-63
2023/06/18 01:09:38;;;;;;;1.88;1.55;;;16.40;99.90;;;;;;4129105;28;20108;-66
2023/06/18 01:11:40;;;;;;;2.20;1.90;;;16.40;99.90;;;;;;4130064;28;20042;-65
2023/06/18 01:13:41;;;;;;;2.30;1.75;;;16.30;99.90;;;;;;4128030;28;20030;-64
2023/06/18 01:15:43;;;;;;;5.90;1.50;;;16.40;99.90;;;;;;4129457;28;20027;-65
2023/06/18 01:17:48;;;;;;;2.80;1.85;;;16.30;99.90;;;;;;4129103;28;20426;-63
2023/06/18 01:20:17;;;;;;;2.30;1.70;;;16.30;99.90;;;;;;4130092;28;20054;-64
2023/06/18 01:22:18;;;;;;;1.92;1.63;;;16.30;99.90;;;;;;4127424;28;20097;-65
2023/06/18 01:24:23;;;;;;;1.77;1.67;;;16.30;99.90;;;;;;4130193;28;20081;-63
2023/06/18 01:26:26;;;;;;;2.38;1.50;;;16.30;99.90;;;;;;4127997;28;20566;-63
2023/06/18 01:28:29;;;;;;;3.08;2.03;;;16.30;99.90;;;;;;4129076;28;20038;-63
2023/06/18 01:30:30;;;;;;;4.18;1.77;;;16.30;99.90;;;;;;4128519;28;20026;-65
2023/06/18 01:32:31;;;;;;;8.32;2.92;;;16.30;99.90;;;;;;4144436;28;20057;-64
2023/06/18 01:34:32;;;;;;;2.42;1.70;;;16.30;99.90;;;;;;4129087;28;20027;-63
2023/06/18 01:36:40;;;;;;;2.17;1.60;;;16.30;99.90;;;;;;4143477;28;20045;-63
2023/06/18 01:38:46;;;;;;;1.40;1.30;;;16.30;99.90;;;;;;4128361;28;20190;-63
2023/06/18 01:41:01;;;;;;;2.88;1.90;;;16.30;99.90;;;;;;4129265;28;20027;-64
2023/06/18 01:43:26;;;;;;;2.20;2.00;;;16.30;99.90;;;;;;4128956;28;20015;-63
2023/06/18 01:45:33;;;;;;;1.95;1.60;;;16.30;99.90;;;;;;4129617;28;20034;-63
2023/06/18 01:47:35;;;;;;;1.80;1.70;;;16.30;99.90;;;;;;4128759;28;20030;-63
2023/06/18 01:49:37;;;;;;;2.47;2.10;;;16.30;99.90;;;;;;4144447;28;20049;-65
2023/06/18 01:51:40;;;;;;;2.58;1.80;;;16.30;99.90;;;;;;4128805;28;20014;-63
2023/06/18 01:53:43;;;;;;;2.65;2.45;;;16.20;99.90;;;;;;4128913;28;20088;-64
2023/06/18 01:55:45;;;;;;;11.25;2.58;;;16.30;99.90;;;;;;4129489;28;20537;-64
2023/06/18 01:57:47;;;;;;;2.35;2.15;;;16.30;99.90;;;;;;4128239;28;20038;-64
2023/06/18 01:59:50;;;;;;;2.80;1.98;;;16.30;99.90;;;;;;4129371;28;20150;-64
2023/06/18 02:01:52;;;;;;;2.67;2.00;;;16.30;99.90;;;;;;4128395;28;20549;-64
2023/06/18 02:03:53;;;;;;;2.67;2.10;;;16.30;99.90;;;;;;4129608;28;20475;-63
2023/06/18 02:05:55;;;;;;;2.38;2.17;;;16.30;99.90;;;;;;4128239;28;20019;-63
2023/06/18 02:07:56;;;;;;;2.60;2.30;;;16.30;99.90;;;;;;4129366;28;20026;-63
2023/06/18 02:09:57;;;;;;;4.47;2.10;;;16.30;99.90;;;;;;4128158;28;20051;-63
2023/06/18 02:11:58;;;;;;;2.63;2.25;;;16.30;99.90;;;;;;4129288;28;20022;-64
2023/06/18 02:13:59;;;;;;;2.97;2.55;;;16.30;99.90;;;;;;4127865;28;20046;-63
2023/06/18 02:16:00;;;;;;;2.22;2.00;;;16.30;99.90;;;;;;4128526;28;20069;-63
2023/06/18 02:18:02;;;;;;;2.70;2.00;;;16.30;99.90;;;;;;4127168;28;20486;-62
2023/06/18 02:20:04;;;;;;;5.55;2.08;;;16.30;99.90;;;;;;4129040;28;20038;-64
2023/06/18 02:22:05;;;;;;;2.78;2.53;;;16.30;99.90;;;;;;4128334;28;20038;-63
2023/06/18 02:24:06;;;;;;;2.28;2.08;;;16.30;99.90;;;;;;4143795;28;20453;-63
2023/06/18 02:26:08;;;;;;;2.35;2.05;;;16.30;99.90;;;;;;4129060;28;20457;-64
2023/06/18 02:28:10;;;;;;;1.88;1.75;;;16.30;99.90;;;;;;4127732;28;20104;-64
2023/06/18 02:30:12;;;;;;;2.70;1.88;;;16.20;99.90;;;;;;4128486;28;20069;-63
2023/06/18 02:32:13;;;;;;;1.83;1.73;;;16.20;99.90;;;;;;4128272;28;20026;-65
2023/06/18 02:34:15;;;;;;;3.10;1.85;;;16.20;99.90;;;;;;4128777;28;20034;-68
2023/06/18 02:36:17;;;;;;;4.60;1.77;;;16.20;99.90;;;;;;4128169;28;20039;-65
2023/06/18 02:38:19;;;;;;;2.20;2.00;;;16.30;99.90;;;;;;4146920;28;20045;-62
2023/06/18 02:40:20;;;;;;;2.45;1.77;;;16.30;99.90;;;;;;4130998;28;20098;-63
2023/06/18 02:42:22;;;;;;;2.25;1.65;;;16.30;99.90;;;;;;4132376;28;20031;-63
2023/06/18 02:44:24;;;;;;;6.07;1.92;;;16.30;99.90;;;;;;4131314;28;20081;-64
2023/06/18 02:46:25;;;;;;;2.83;2.38;;;16.30;99.90;;;;;;4132696;28;20038;-63
2023/06/18 02:48:26;;;;;;;2.63;1.90;;;16.30;99.90;;;;;;4131051;28;20069;-63
2023/06/18 02:50:27;;;;;;;2.72;2.17;;;16.30;99.90;;;;;;4132583;28;20472;-63
2023/06/18 02:52:28;;;;;;;2.80;2.50;;;16.30;99.90;;;;;;4131186;28;20434;-63
2023/06/18 02:54:30;;;;;;;4.38;2.28;;;16.30;99.90;;;;;;4132361;28;20035;-63
2023/06/18 02:56:31;;;;;;;8.50;2.33;;;16.20;99.90;;;;;;4132168;28;20026;-63
2023/06/18 02:58:35;;;;;;;3.72;1.95;;;16.20;99.90;;;;;;4131817;28;20030;-64
2023/06/18 03:00:36;;;;;;;3.03;2.40;;;16.20;99.90;;;;;;4131522;28;20093;-63
2023/06/18 03:02:39;;;;;;;3.45;2.47;;;16.30;99.90;;;;;;4131309;28;20039;-64
2023/06/18 03:04:40;;;;;;;2.65;2.45;;;16.30;99.90;;;;;;4132052;28;20076;-64
2023/06/18 03:06:41;;;;;;;2.67;2.45;;;16.30;99.90;;;;;;4130854;28;20089;-64
2023/06/18 03:08:42;;;;;;;2.22;2.03;;;16.30;99.90;;;;;;4132220;28;20061;-64
2023/06/18 03:10:44;;;;;;;3.67;2.53;;;16.30;99.90;;;;;;4130893;28;20109;-64
2023/06/18 03:12:46;;;;;;;3.60;2.03;;;16.30;99.90;;;;;;4132110;28;20042;-63
2023/06/18 03:14:47;;;;;;;4.28;2.40;;;16.30;99.90;;;;;;4131104;28;20034;-64
2023/06/18 03:16:48;;;;;;;4.53;3.20;;;16.30;99.90;;;;;;4131390;28;20038;-63
2023/06/18 03:18:50;;;;;;;3.28;2.53;;;16.30;99.90;;;;;;4130420;28;20042;-63
2023/06/18 03:20:51;;;;;;;6.07;2.60;;;16.30;99.90;;;;;;4131430;28;20038;-63
2023/06/18 03:22:53;;;;;;;2.60;2.40;;;16.30;99.90;;;;;;4130194;28;20077;-63
2023/06/18 03:24:54;;;;;;;4.35;2.45;;;16.30;99.90;;;;;;4131559;28;20034;-63
2023/06/18 03:26:58;;;;;;;3.47;2.58;;;16.30;99.90;;;;;;4131351;28;20089;-65
2023/06/18 03:28:59;;;;;;;6.03;1.92;;;16.30;99.90;;;;;;4131406;28;20438;-63
2023/06/18 03:31:00;;;;;;;3.10;1.77;;;16.20;99.90;;;;;;4130567;28;20069;-63
2023/06/18 03:33:02;;;;;;;2.33;2.10;;;16.20;99.90;;;;;;4130996;28;20487;-63
2023/06/18 03:35:04;;;;;;;5.88;2.63;;;16.20;99.90;;;;;;4131323;28;20084;-64
2023/06/18 03:37:06;;;;;;;6.00;2.30;;;16.20;99.90;;;;;;4130178;28;20055;-64
2023/06/18 03:39:11;;;;;;;2.95;2.20;;;16.20;99.90;;;;;;4129652;28;20069;-64
2023/06/18 03:41:13;;;;;;;3.58;2.20;;;16.20;99.90;;;;;;4130551;28;20101;-63
2023/06/18 03:43:14;;;;;;;2.20;1.92;;;16.20;99.90;;;;;;4131300;28;20557;-63
2023/06/18 03:45:15;;;;;;;4.22;2.00;;;16.20;99.90;;;;;;4130121;28;20034;-64
2023/06/18 03:47:17;;;;;;;3.05;2.35;;;16.30;99.90;;;;;;4131667;28;20038;-64
2023/06/18 03:49:18;;;;;;;3.53;1.63;;;16.30;99.90;;;;;;4129572;28;20089;-64
2023/06/18 03:51:19;;;;;;;2.13;1.85;;;16.30;99.90;;;;;;4130815;28;20034;-64
2023/06/18 03:53:21;;;;;;;3.22;2.10;;;16.40;99.90;;;;;;4144848;28;20045;-64
2023/06/18 03:55:22;;;;;;;2.33;1.77;;;16.40;99.90;;;;;;4131294;28;20030;-64
2023/06/18 03:57:23;;;;;;;3.25;2.00;;;16.40;99.90;;;;;;4130636;28;20077;-64
2023/06/18 03:59:25;;;;;;;2.42;2.05;;;16.40;99.90;;;;;;4131058;28;20030;-64
2023/06/18 04:01:27;;;;;;;2.45;1.90;;;16.50;99.90;;;;;;4130555;28;20435;-65
2023/06/18 04:03:28;;;;;;;5.47;2.30;;;16.50;99.90;;;;;;4145537;28;20026;-65
2023/06/18 04:05:29;;;;;;;2.60;2.35;;;16.50;99.90;;;;;;4130929;28;20093;-64
2023/06/18 04:07:31;;;;;;;2.70;2.10;;;16.50;99.90;;;;;;4129312;28;20038;-65
2023/06/18 04:09:32;;;;;;;5.43;2.25;;;16.50;99.90;;;;;;4130942;28;20073;-64
2023/06/18 04:11:33;;;;;;;1.80;1.70;;;16.50;99.90;;;;;;4129825;28;20089;-63
2023/06/18 04:13:35;;;;;;;2.50;1.70;;;16.50;99.90;;;;;;4131111;28;20081;-63
2023/06/18 04:15:36;;;;;;;6.22;2.28;;;16.50;99.90;;;;;;4129924;28;20034;-63
2023/06/18 04:17:41;;;;;;;1.80;1.55;;;16.60;99.90;;;;;;4130772;28;20046;-63
2023/06/18 04:19:42;;;;;;;2.33;1.77;;;16.60;99.90;;;;;;4129501;28;20107;-64
2023/06/18 04:21:43;;;;;;;4.45;1.67;;;16.70;99.90;;;;;;4130501;28;20046;-62
2023/06/18 04:23:45;;;;;;;4.13;1.70;;;16.70;99.90;;;;;;4128996;28;20038;-62
2023/06/18 04:25:46;;;;;;;4.53;1.85;;;16.70;99.90;;;;;;4130446;28;20114;-63
2023/06/18 04:27:47;;;;;;;3.22;2.08;;;16.70;99.90;;;;;;4129951;28;20034;-63
2023/06/18 04:29:48;;;;;;;2.40;2.20;;;16.70;99.90;;;;;;4130102;28;20038;-64
2023/06/18 04:31:50;;;;;;;4.38;2.25;;;16.70;99.90;;;;;;4129768;28;20553;-63
2023/06/18 04:33:51;;;;;;;4.45;2.70;;;16.70;99.90;;;;;;4145237;28;20026;-63
2023/06/18 04:35:52;;;;;;;1.98;1.73;;;16.80;99.90;;;;;;4130365;28;20069;-64
2023/06/18 04:37:53;;;;;;;3.03;2.20;;;16.80;99.90;;;;;;4129760;28;20034;-63
2023/06/18 04:39:56;;;;;;;3.13;2.83;;;16.90;99.90;;;;;;4128741;28;20469;-63
2023/06/18 04:41:57;;;;;;;3.97;2.85;;;16.90;99.90;;;;;;4129423;28;20035;-64
2023/06/18 04:43:58;;;;;;;7.65;3.65;;;16.90;99.90;;;;;;4130771;28;20030;-63
2023/06/18 04:46:00;;;;;;;10.60;5.13;;;17.00;99.90;;;;;;4129019;28;20446;-63
2023/06/18 04:48:03;;;;;;;15.52;7.20;;;17.00;99.90;;;;;;4130836;28;20065;-63
2023/06/18 04:50:06;;;;;;;7.18;4.47;;;17.10;99.90;;;;;;4129008;28;20042;-63
2023/06/18 04:52:07;;;;;;;11.70;5.00;;;17.10;99.90;;;;;;4129748;28;20120;-63
2023/06/18 04:54:08;;;;;;;5.25;3.75;;;17.10;99.90;;;;;;4129414;28;20085;-64
2023/06/18 04:56:10;;;;;;;6.72;4.20;;;17.10;99.90;;;;;;4130616;28;20030;-64
2023/06/18 04:58:11;;;;;;;14.05;6.40;;;17.10;99.90;;;;;;4129383;28;20077;-64
2023/06/18 05:00:13;;;;;;;17.20;7.07;;;17.10;99.90;;;;;;4129827;28;20038;-64
2023/06/18 05:02:14;;;;;;;5.20;3.80;;;17.20;99.90;;;;;;4128948;28;20034;-64
2023/06/18 05:04:15;;;;;;;3.63;3.05;;;17.30;99.90;;;;;;4129854;28;20069;-64
2023/06/18 05:06:17;;;;;;;10.25;7.10;;;17.30;99.90;;;;;;4129814;28;20430;-63
2023/06/18 05:08:18;;;;;;;4.00;3.00;;;17.30;99.90;;;;;;4129087;28;20093;-64
2023/06/18 05:10:20;;;;;;;4.50;2.55;;;17.40;99.90;;;;;;4129474;28;20097;-63
2023/06/18 05:12:21;;;;;;;2.03;1.92;;;17.50;99.90;;;;;;4129198;28;20471;-63
2023/06/18 05:14:22;;;;;;;3.05;2.47;;;17.60;99.90;;;;;;4129930;28;20081;-64
2023/06/18 05:16:23;;;;;;;2.60;2.40;;;17.60;99.90;;;;;;4129507;28;20022;-64
2023/06/18 05:18:25;;;;;;;7.53;2.63;;;17.80;99.90;;;;;;4130106;28;20507;-64
2023/06/18 05:20:26;;;;;;;1.73;1.63;;;17.90;99.90;;;;;;4128948;28;20038;-64
2023/06/18 05:22:27;;;;;;;1.67;1.20;;;18.10;99.90;;;;;;4130043;28;20038;-64
2023/06/18 05:24:28;;;;;;;1.15;0.90;;;18.20;99.90;;;;;;4128880;28;20284;-63
2023/06/18 05:26:31;;;;;;;2.20;1.30;;;18.30;99.90;;;;;;4144656;28;20088;-64
2023/06/18 05:28:32;;;;;;;0.95;0.90;;;18.30;99.90;;;;;;4127916;28;20030;-64
2023/06/18 05:30:33;;;;;;;1.38;0.70;;;18.40;99.90;;;;;;4128293;28;20492;-64
2023/06/18 05:32:34;;;;;;;0.90;0.90;;;18.50;99.90;;;;;;4143050;28;20029;-63
2023/06/18 05:34:35;;;;;;;1.48;1.15;;;18.50;99.90;;;;;;4129255;28;20104;-64
2023/06/18 05:36:37;;;;;;;0.98;0.98;;;18.60;99.90;;;;;;4128765;28;20085;-63
2023/06/18 05:38:38;;;;;;;1.60;0.90;;;18.60;99.90;;;;;;4128919;28;20038;-63
2023/06/18 05:40:39;;;;;;;1.20;1.05;;;18.70;99.90;;;;;;4129359;28;20080;-67
2023/06/18 05:42:40;;;;;;;3.38;1.00;;;19.00;99.90;;;;;;4128305;28;20446;-64
2023/06/18 05:44:41;;;;;;;1.60;1.50;;;19.20;99.90;;;;;;4129812;28;20471;-64
2023/06/18 05:46:42;;;;;;;1.45;1.35;;;19.30;99.90;;;;;;4128120;28;20042;-64
2023/06/18 05:48:43;;;;;;;2.30;1.25;;;19.30;99.90;;;;;;4129638;28;20030;-64
2023/06/18 05:50:45;;;;;;;3.05;1.05;;;19.30;99.90;;;;;;4128458;28;20073;-64
2023/06/18 05:52:46;;;;;;;0.98;0.90;;;19.50;99.90;;;;;;4129165;28;20101;-64
2023/06/18 05:54:47;;;;;;;1.20;1.10;;;19.50;99.90;;;;;;4128578;28;20425;-64
2023/06/18 05:56:48;;;;;;;2.40;1.40;;;19.70;99.90;;;;;;4129590;28;20034;-66
2023/06/18 05:58:49;;;;;;;2.22;0.95;;;19.70;99.90;;;;;;4128146;28;20042;-64
2023/06/18 06:00:50;;;;;;;1.35;0.80;;;19.60;99.90;;;;;;4128922;28;20030;-65
2023/06/18 06:02:51;;;;;;;2.13;1.52;;;19.60;99.90;;;;;;4128605;28;20030;-65
2023/06/18 06:04:53;;;;;;;1.50;1.10;;;19.60;99.90;;;;;;4128690;28;20031;-64
2023/06/18 06:06:54;;;;;;;1.83;0.90;;;19.80;99.90;;;;;;4128600;28;20042;-64
2023/06/18 06:08:55;;;;;;;1.70;1.48;;;19.90;99.90;;;;;;4128175;28;20092;-64
2023/06/18 06:10:56;;;;;;;1.80;1.58;;;20.00;99.90;;;;;;4127774;28;20104;-64
2023/06/18 06:12:57;;;;;;;0.98;0.93;;;19.90;99.90;;;;;;4127145;28;20375;-63
2023/06/18 06:14:58;;;;;;;1.20;0.80;;;19.90;99.90;;;;;;4127928;28;20726;-64
2023/06/18 06:16:59;;;;;;;1.13;0.82;;;19.80;99.90;;;;;;4127205;28;20034;-63
2023/06/18 06:19:01;;;;;;;2.28;0.80;;;19.80;99.90;;;;;;4129117;28;20038;-64
2023/06/18 06:21:02;;;;;;;0.88;0.73;;;20.00;99.90;;;;;;4126611;28;20050;-63
2023/06/18 06:23:03;;;;;;;1.30;0.88;;;20.10;99.90;;;;;;4128084;28;20451;-64
2023/06/18 06:25:05;;;;;;;2.17;1.10;;;20.10;99.90;;;;;;4127303;28;20113;-64
2023/06/18 06:27:06;;;;;;;2.78;0.85;;;20.20;99.90;;;;;;4144194;28;20088;-64
2023/06/18 06:29:08;;;;;;;0.90;0.90;;;20.30;99.90;;;;;;4127932;28;20069;-67
2023/06/18 06:31:09;;;;;;;0.77;0.60;;;20.30;99.90;;;;;;4128617;28;20097;-63
2023/06/18 06:33:10;;;;;;;1.58;0.73;;;20.30;99.90;;;;;;4127961;28;20031;-63
2023/06/18 06:35:11;;;;;;;2.65;0.95;;;20.40;99.90;;;;;;4128183;28;20038;-64
2023/06/18 06:37:12;;;;;;;2.03;0.60;;;20.40;99.90;;;;;;4128145;28;20073;-63
2023/06/18 06:39:14;;;;;;;1.45;0.80;;;20.40;99.90;;;;;;4128010;28;20046;-64
2023/06/18 06:41:15;;;;;;;0.70;0.70;;;20.50;99.90;;;;;;4128197;28;20046;-67
2023/06/18 06:43:16;;;;;;;2.70;0.85;;;20.40;99.90;;;;;;4126014;28;20030;-64
2023/06/18 06:45:17;;;;;;;1.08;0.63;;;20.30;99.90;;;;;;4129205;28;20479;-65
2023/06/18 06:47:18;;;;;;;1.35;0.75;;;20.20;99.90;;;;;;4127939;28;20026;-64
2023/06/18 06:49:19;;;;;;;1.90;0.52;;;20.10;99.90;;;;;;4128785;28;20023;-66
2023/06/18 06:51:21;;;;;;;1.70;1.00;;;20.10;99.90;;;;;;4127733;28;20073;-66
2023/06/18 06:53:22;;;;;;;2.85;1.88;;;20.10;99.90;;;;;;4128649;28;20026;-64
2023/06/18 06:55:23;;;;;;;1.33;1.23;;;20.10;99.90;;;;;;4126809;28;20034;-64
2023/06/18 06:57:24;;;;;;;3.38;0.63;;;20.10;99.90;;;;;;4127963;28;20826;-65
2023/06/18 06:59:25;;;;;;;2.35;0.50;;;20.20;99.90;;;;;;4126756;28;20545;-65
2023/06/18 07:01:27;;;;;;;2.78;0.80;;;20.10;99.90;;;;;;4128348;28;20047;-64
2023/06/18 07:03:28;;;;;;;1.30;0.60;;;20.10;99.90;;;;;;4127667;28;20092;-64
2023/06/18 07:05:30;;;;;;;1.25;0.50;;;20.10;99.90;;;;;;4127538;28;20026;-65
2023/06/18 07:07:31;;;;;;;0.73;0.57;;;20.00;99.90;;;;;;4127155;28;20034;-65
2023/06/18 07:09:32;;;;;;;1.13;0.28;;;20.00;99.90;;;;;;4127054;28;20453;-64
2023/06/18 07:11:37;;;;;;;1.58;0.50;;;19.90;99.90;;;;;;4126778;28;20059;-67
2023/06/18 07:13:39;;;;;;;2.05;0.25;;;19.80;99.90;;;;;;4126740;28;20126;-67
2023/06/18 07:15:40;;;;;;;1.25;0.55;;;19.70;99.90;;;;;;4128144;28;20092;-69
2023/06/18 07:17:41;;;;;;;1.60;0.80;;;19.70;99.90;;;;;;4125765;28;20438;-64
2023/06/18 07:19:42;;;;;;;6.55;1.90;;;19.60;99.90;;;;;;4126844;28;20506;-64
2023/06/18 07:21:43;;;;;;;3.40;1.00;;;19.50;99.90;;;;;;4127343;28;20042;-63
2023/06/18 07:23:44;;;;;;;5.82;1.00;;;19.60;99.90;;;;;;4128851;28;20116;-63
2023/06/18 07:25:45;;;;;;;5.65;1.60;;;19.60;99.90;;;;;;4130405;28;20077;-63
2023/06/18 07:27:47;;;;;;;5.93;3.63;;;19.50;99.90;;;;;;4146256;28;20128;-63
2023/06/18 07:29:48;;;;;;;4.43;3.22;;;19.50;99.90;;;;;;4129412;28;20423;-63
2023/06/18 07:31:49;;;;;;;3.03;0.80;;;19.50;99.90;;;;;;4131587;28;20030;-64
2023/06/18 07:33:50;;;;;;;1.48;0.40;;;19.60;99.90;;;;;;4145236;28;20041;-64
2023/06/18 07:35:51;;;;;;;2.58;0.75;;;19.60;99.90;;;;;;4130718;28;20045;-67
2023/06/18 07:37:52;;;;;;;3.63;0.80;;;19.60;99.90;;;;;;4130422;28;20622;-67
2023/06/18 07:39:54;;;;;;;0.63;0.32;;;19.70;99.90;;;;;;4130216;28;20026;-63
2023/06/18 07:41:56;;;;;;;0.95;0.30;;;19.70;99.90;;;;;;4130679;28;20093;-64
2023/06/18 07:43:57;;;;;;;1.67;0.70;;;19.70;99.90;;;;;;4129763;28;20078;-63
2023/06/18 07:45:59;;;;;;;7.38;4.43;;;19.70;99.90;;;;;;4130814;28;20034;-63
2023/06/18 07:48:00;;;;;;;2.25;1.58;;;19.70;99.90;;;;;;4129821;28;20467;-66
2023/06/18 07:50:02;;;;;;;0.75;0.47;;;19.80;99.90;;;;;;4130555;28;20097;-63
2023/06/18 07:52:03;;;;;;;0.40;0.28;;;19.80;99.90;;;;;;4128624;28;20030;-63
2023/06/18 07:54:05;;;;;;;0.40;0.30;;;19.80;99.90;;;;;;4114772;28;20111;-64
2023/06/18 07:56:07;;;;;;;0.98;0.50;;;19.70;99.90;;;;;;4113120;28;20035;-65
2023/06/18 07:58:08;;;;;;;1.77;1.52;;;19.70;99.90;;;;;;4127314;28;20039;-64
2023/06/18 08:00:10;;;;;;;0.47;0.30;;;19.80;99.90;;;;;;4143519;28;20018;-64
2023/06/18 08:02:11;;;;;;;0.50;0.32;;;19.90;99.90;;;;;;4130464;28;20030;-64
2023/06/18 08:04:12;;;;;;;2.10;0.25;;;19.90;99.90;;;;;;4129096;28;20116;-64
2023/06/18 08:06:13;;;;;;;1.55;0.30;;;19.90;99.90;;;;;;4130051;28;20085;-65
2023/06/18 08:08:15;;;;;;;3.40;0.30;;;20.10;99.90;;;;;;4128475;28;20026;-63
2023/06/18 08:10:16;;;;;;;3.33;0.52;;;20.20;99.90;;;;;;4129953;28;20050;-63
2023/06/18 08:12:17;;;;;;;20.50;1.90;;;20.10;99.90;;;;;;4129991;28;20491;-63
2023/06/18 08:14:18;;;;;;;14.52;1.73;;;20.20;99.90;;;;;;4129403;28;20468;-62
2023/06/18 08:16:21;;;;;;;3.22;0.20;;;20.30;99.90;;;;;;4130354;28;20483;-63
2023/06/18 08:18:22;;;;;;;2.28;0.50;;;20.30;99.90;;;;;;4129137;28;20069;-62
2023/06/18 08:20:23;;;;;;;0.30;0.10;;;20.30;99.90;;;;;;4130145;28;20058;-63
2023/06/18 08:22:26;;;;;;;6.72;1.15;;;20.30;99.90;;;;;;4128375;28;20038;-63
2023/06/18 08:24:27;;;;;;;2.75;0.60;;;20.40;99.90;;;;;;4129551;28;20491;-63
2023/06/18 08:26:28;;;;;;;7.15;1.05;;;20.60;99.90;;;;;;4129499;28;20434;-63
2023/06/18 08:28:29;;;;;;;13.50;1.45;;;20.80;99.90;;;;;;4130765;28;20446;-64
2023/06/18 08:30:30;;;;;;;8.88;1.85;;;21.00;99.90;;;;;;4128258;28;20050;-65
2023/06/18 08:32:31;;;;;;;9.00;0.95;;;21.10;99.90;;;;;;4127223;28;20483;-65
2023/06/18 08:34:33;;;;;;;0.68;0.30;;;21.10;99.90;;;;;;4127574;28;20085;-64
2023/06/18 08:36:35;;;;;;;1.15;0.50;;;21.10;99.90;;;;;;4129843;28;20380;-63
2023/06/18 08:38:36;;;;;;;0.00;0.00;;;21.20;99.90;;;;;;4128989;28;20026;-63
2023/06/18 08:40:54;;;;;;;0.80;0.28;;;21.30;99.90;;;;;;4128679;28;20050;-63
2023/06/18 08:42:55;;;;;;;6.90;0.70;;;21.60;99.90;;;;;;4128677;28;20438;-63
2023/06/18 08:44:56;;;;;;;1.63;0.38;;;21.90;99.90;;;;;;4129367;28;20105;-65
2023/06/18 08:47:01;;;;;;;1.50;0.10;;;22.10;99.90;;;;;;4129363;28;20073;-62
2023/06/18 08:49:04;;;;;;;0.20;0.10;;;22.20;99.90;;;;;;4127125;28;20035;-62
2023/06/18 08:51:07;;;;;;;0.30;0.17;;;22.20;99.90;;;;;;4130175;28;20038;-62
2023/06/18 08:53:16;;;;;;;0.80;0.20;;;22.00;99.90;;;;;;4128867;28;20026;-64
2023/06/18 08:55:17;;;;;;;2.33;0.70;;;22.00;99.90;;;;;;4129968;28;20108;-64
2023/06/18 08:57:24;;;;;;;0.32;0.10;;;22.30;99.90;;;;;;4129066;28;20038;-65
2023/06/18 08:59:26;;;;;;;2.45;0.20;;;22.40;99.90;;;;;;4130072;28;20030;-65
2023/06/18 09:01:28;;;;;;;0.25;0.10;;;22.70;99.90;;;;;;4128129;28;20069;-64
2023/06/18 09:03:31;;;;;;;0.28;0.00;;;22.60;99.90;;;;;;4125573;28;20085;-61
2023/06/18 09:05:33;;;;;;;0.03;0.00;;;22.70;99.90;;;;;;4119824;28;20051;-64
2023/06/18 09:07:35;;;;;;;3.83;0.93;;;22.60;99.90;;;;;;4123543;28;20113;-65
2023/06/18 09:09:37;;;;;;;3.83;0.52;;;22.60;99.90;;;;;;4125910;28;20023;-66
2023/06/18 09:11:38;;;;;;;0.65;0.10;;;22.80;99.90;;;;;;4120006;28;20439;-63
2023/06/18 09:13:41;;;;;;;0.20;0.10;;;22.90;99.90;;;;;;4118140;28;20089;-65
2023/06/18 09:15:43;;;;;;;5.93;1.10;;;22.80;99.90;;;;;;4125187;28;20035;-65
2023/06/18 09:17:51;;;;;;;6.30;1.55;;;22.60;99.90;;;;;;4118624;28;20101;-65
2023/06/18 09:19:54;;;;;;;0.55;0.25;;;22.60;99.90;;;;;;4129400;28;20042;-66
2023/06/18 09:21:55;;;;;;;0.30;0.00;;;22.70;99.90;;;;;;4128784;28;20046;-65
2023/06/18 09:23:56;;;;;;;2.88;0.10;;;22.50;99.90;;;;;;4127941;28;20430;-68
2023/06/18 09:25:58;;;;;;;10.13;1.33;;;22.50;99.90;;;;;;4129065;28;20038;-68
2023/06/18 09:28:01;;;;;;;1.00;0.20;;;22.40;99.90;;;;;;4128243;28;20035;-67
2023/06/18 09:30:05;;;;;;;0.35;0.20;;;22.30;99.90;;;;;;4128451;28;20042;-72
2023/06/18 09:32:13;;;;;;;0.20;0.10;;;22.40;99.90;;;;;;4127955;28;20054;-70
2023/06/18 09:34:15;;;;;;;1.92;0.20;;;22.40;99.90;;;;;;4129973;28;20034;-66
2023/06/18 09:36:17;;;;;;;2.20;0.47;;;22.50;99.90;;;;;;4128143;28;20097;-67
2023/06/18 09:38:18;;;;;;;9.15;1.20;;;22.70;99.90;;;;;;4129425;28;20042;-69
2023/06/18 09:40:21;;;;;;;4.95;1.38;;;22.70;99.90;;;;;;4128536;28;20034;-68
2023/06/18 09:42:29;;;;;;;3.42;0.63;;;22.80;99.90;;;;;;4126794;28;20097;-67
2023/06/18 09:44:30;;;;;;;2.03;0.30;;;23.10;99.90;;;;;;4128057;28;20019;-68
2023/06/18 09:46:32;;;;;;;1.10;0.22;;;23.30;99.90;;;;;;4127828;28;20085;-65
2023/06/18 09:48:39;;;;;;;2.17;0.28;;;23.30;99.90;;;;;;4126972;28;20050;-65
2023/06/18 09:50:40;;;;;;;0.55;0.20;;;23.20;99.90;;;;;;4129312;28;20034;-64
2023/06/18 09:52:49;;;;;;;1.38;0.10;;;23.10;99.90;;;;;;4128065;28;20038;-64
2023/06/18 09:54:50;;;;;;;0.47;0.10;;;23.20;99.90;;;;;;4128502;28;20501;-67
2023/06/18 09:56:59;;;;;;;0.55;0.35;;;23.50;99.90;;;;;;4127345;28;20030;-64
2023/06/18 09:59:03;;;;;;;1.38;0.20;;;23.80;99.90;;;;;;4128689;28;20050;-63
2023/06/18 10:01:04;;;;;;;2.88;1.13;;;24.10;99.90;;;;;;4128065;28;20073;-66
2023/06/18 10:03:07;;;;;;;0.57;0.20;;;24.20;99.90;;;;;;4128449;28;20038;-64
2023/06/18 10:05:08;;;;;;;3.00;0.30;;;24.10;99.90;;;;;;4127226;28;20375;-63
2023/06/18 10:07:16;;;;;;;3.72;0.20;;;23.80;99.90;;;;;;4128194;28;20097;-66
2023/06/18 10:09:19;;;;;;;3.10;0.82;;;23.60;99.90;;;;;;4127231;28;20541;-65
2023/06/18 10:11:22;;;;;;;4.13;1.05;;;23.40;99.90;;;;;;4131702;28;20041;-65
2023/06/18 10:13:24;;;;;;;1.85;0.30;;;23.20;99.90;;;;;;4144785;28;20030;-66
2023/06/18 10:15:25;;;;;;;1.45;0.10;;;23.10;99.90;;;;;;4143060;28;20038;-68
2023/06/18 10:17:33;;;;;;;2.28;0.20;;;23.00;99.90;;;;;;4144599;28;20030;-66
2023/06/18 10:19:47;;;;;;;1.20;0.10;;;23.10;99.90;;;;;;4111723;28;20173;-66
2023/06/18 10:22:00;;;;;;;1.17;0.28;;;23.20;99.90;;;;;;4112493;28;20039;-67
2023/06/18 10:24:26;;;;;;;0.75;0.10;;;23.10;99.90;;;;;;4122775;28;20061;-73
2023/06/18 10:26:28;;;;;;;0.28;0.00;;;23.40;99.90;;;;;;4128017;28;20043;-71
2023/06/18 10:28:30;;;;;;;1.77;0.65;;;23.40;99.90;;;;;;4127992;28;20085;-71
2023/06/18 10:30:32;;;;;;;2.15;0.40;;;23.50;99.90;;;;;;4128520;28;20112;-63
2023/06/18 10:32:34;;;;;;;1.63;0.13;;;23.60;99.90;;;;;;4127571;28;20081;-65
2023/06/18 10:34:37;;;;;;;4.47;0.65;;;23.80;99.90;;;;;;4127834;28;20026;-68